createdAt,value
2023-04-11T00:00:17.260Z,0.74
2023-04-11T00:01:17.259Z,0.73
2023-04-11T00:02:17.345Z,0.76
2023-04-11T00:03:17.374Z,0.73
2023-04-11T00:04:17.413Z,0.75
2023-04-11T00:05:17.296Z,0.74
2023-04-11T00:06:17.306Z,0.75
2023-04-11T00:07:17.306Z,0.75
2023-04-11T00:08:17.330Z,0.74
2023-04-11T00:09:17.304Z,0.76
2023-04-11T00:10:17.304Z,0.73
2023-04-11T00:11:17.304Z,0.76
2023-04-11T00:12:17.302Z,0.75
2023-04-11T00:13:17.290Z,0.76
2023-04-11T00:14:17.293Z,0.75
2023-04-11T00:15:17.301Z,0.75
2023-04-11T00:16:17.342Z,0.76
2023-04-11T00:17:17.340Z,0.74
2023-04-11T00:18:17.361Z,0.75
2023-04-11T00:19:17.385Z,0.75
2023-04-11T00:20:17.462Z,0.73
2023-04-11T00:21:17.409Z,0.75
2023-04-11T00:22:17.428Z,0.73
2023-04-11T00:23:17.446Z,0.74
2023-04-11T00:24:17.458Z,0.75
2023-04-11T00:25:17.464Z,0.74
2023-04-11T00:26:17.480Z,0.78
2023-04-11T00:27:17.969Z,0.74
2023-04-11T00:28:17.525Z,0.74
2023-04-11T00:29:17.526Z,0.73
2023-04-11T00:30:17.570Z,0.74
2023-04-11T00:31:17.615Z,0.76
2023-04-11T00:32:17.565Z,0.73
2023-04-11T00:33:17.561Z,0.74
2023-04-11T00:34:17.583Z,0.73
2023-04-11T00:35:17.580Z,0.77
2023-04-11T00:36:17.676Z,0.73
2023-04-11T00:37:17.607Z,0.73
2023-04-11T00:38:17.614Z,0.73
2023-04-11T00:39:17.608Z,0.73
2023-04-11T00:40:17.629Z,0.73
2023-04-11T00:41:17.616Z,0.73
2023-04-11T00:42:17.610Z,0.75
2023-04-11T00:43:17.607Z,0.73
2023-04-11T00:44:17.612Z,0.73
2023-04-11T00:45:17.625Z,0.74
2023-04-11T00:46:17.668Z,0.75
2023-04-11T00:47:17.604Z,0.72
2023-04-11T00:48:17.631Z,0.72
2023-04-11T00:49:17.637Z,0.73
2023-04-11T00:50:17.628Z,0.73
2023-04-11T00:51:17.611Z,0.73
2023-04-11T00:52:17.596Z,0.72
2023-04-11T00:53:17.564Z,0.74
2023-04-11T00:54:17.567Z,0.72
2023-04-11T00:55:17.589Z,0.74
2023-04-11T00:56:17.594Z,0.74
2023-04-11T00:57:17.602Z,0.73
2023-04-11T00:58:17.616Z,0.74
2023-04-11T00:59:17.626Z,0.75
2023-04-11T01:00:17.639Z,0.72
2023-04-11T01:01:17.670Z,0.74
2023-04-11T01:02:17.812Z,0.76
2023-04-11T01:03:17.953Z,0.73
2023-04-11T01:04:17.695Z,0.72
2023-04-11T01:05:17.687Z,0.75
2023-04-11T01:06:17.699Z,0.74
2023-04-11T01:07:17.722Z,0.74
2023-04-11T01:08:17.745Z,0.72
2023-04-11T01:09:17.766Z,0.73
2023-04-11T01:10:17.770Z,0.74
2023-04-11T01:11:17.790Z,0.75
2023-04-11T01:12:17.781Z,0.73
2023-04-11T01:13:17.784Z,0.72
2023-04-11T01:14:17.794Z,0.73
2023-04-11T01:15:17.836Z,0.72
2023-04-11T01:16:17.880Z,0.74
2023-04-11T01:17:17.871Z,0.73
2023-04-11T01:18:17.894Z,0.74
2023-04-11T01:19:17.909Z,0.72
2023-04-11T01:20:17.941Z,0.75
2023-04-11T01:21:17.956Z,0.73
2023-04-11T01:22:17.989Z,0.71
2023-04-11T01:23:18.005Z,0.74
2023-04-11T01:24:18.052Z,0.73
2023-04-11T01:25:18.060Z,0.73
2023-04-11T01:26:18.079Z,0.74
2023-04-11T01:27:18.108Z,0.75
2023-04-11T01:28:18.124Z,0.72
2023-04-11T01:29:18.136Z,0.74
2023-04-11T01:30:18.164Z,0.74
2023-04-11T01:31:18.229Z,0.73
2023-04-11T01:32:18.201Z,0.74
2023-04-11T01:33:18.218Z,0.71
2023-04-11T01:34:18.248Z,0.73
2023-04-11T01:35:18.260Z,0.72
2023-04-11T01:36:18.285Z,0.73
2023-04-11T01:37:18.308Z,0.70
2023-04-11T01:38:18.332Z,0.74
2023-04-11T01:39:18.513Z,0.73
2023-04-11T01:40:18.366Z,0.74
2023-04-11T01:41:18.380Z,0.73
2023-04-11T01:42:18.418Z,0.74
2023-04-11T01:43:18.438Z,0.72
2023-04-11T01:44:18.452Z,0.71
2023-04-11T01:45:18.459Z,0.72
2023-04-11T01:46:18.476Z,0.72
2023-04-11T01:47:18.510Z,0.72
2023-04-11T01:48:18.600Z,0.73
2023-04-11T01:49:18.554Z,0.73
2023-04-11T01:50:18.579Z,0.71
2023-04-11T01:51:18.603Z,0.72
2023-04-11T01:52:18.602Z,0.73
2023-04-11T01:53:18.628Z,0.72
2023-04-11T01:54:18.658Z,0.72
2023-04-11T01:55:18.673Z,0.72
2023-04-11T01:56:18.706Z,0.72
2023-04-11T01:57:18.717Z,0.71
2023-04-11T01:58:18.745Z,0.73
2023-04-11T01:59:18.730Z,0.75
2023-04-11T02:00:18.734Z,0.71
2023-04-11T02:01:18.783Z,0.72
2023-04-11T02:02:18.861Z,0.74
2023-04-11T02:03:18.891Z,0.71
2023-04-11T02:04:18.838Z,0.73
2023-04-11T02:05:18.794Z,0.72
2023-04-11T02:06:18.789Z,0.71
2023-04-11T02:07:18.805Z,0.74
2023-04-11T02:08:18.820Z,0.76
2023-04-11T02:09:18.825Z,0.74
2023-04-11T02:10:18.849Z,0.72
2023-04-11T02:11:18.873Z,0.74
2023-04-11T02:12:18.885Z,0.74
2023-04-11T02:13:18.915Z,0.71
2023-04-11T02:14:18.941Z,0.72
2023-04-11T02:15:18.955Z,0.74
2023-04-11T02:16:19.059Z,0.71
2023-04-11T02:17:19.015Z,0.74
2023-04-11T02:18:19.044Z,0.71
2023-04-11T02:19:19.068Z,0.74
2023-04-11T02:20:19.096Z,0.73
2023-04-11T02:21:19.125Z,0.71
2023-04-11T02:22:19.160Z,0.72
2023-04-11T02:23:19.180Z,0.73
2023-04-11T02:24:19.212Z,0.73
2023-04-11T02:25:19.246Z,0.74
2023-04-11T02:26:19.256Z,0.72
2023-04-11T02:27:19.290Z,0.71
2023-04-11T02:28:19.309Z,0.73
2023-04-11T02:29:19.365Z,0.74
2023-04-11T02:30:19.354Z,0.71
2023-04-11T02:31:19.455Z,0.71
2023-04-11T02:32:19.481Z,0.74
2023-04-11T02:33:19.449Z,0.71
2023-04-11T02:34:19.457Z,0.71
2023-04-11T02:35:19.467Z,0.72
2023-04-11T02:36:19.497Z,0.72
2023-04-11T02:37:19.508Z,0.73
2023-04-11T02:38:19.530Z,0.71
2023-04-11T02:39:19.570Z,0.73
2023-04-11T02:40:19.582Z,0.72
2023-04-11T02:41:19.593Z,0.72
2023-04-11T02:42:19.634Z,0.71
2023-04-11T02:43:19.659Z,0.70
2023-04-11T02:44:19.668Z,0.71
2023-04-11T02:45:19.717Z,0.73
2023-04-11T02:46:19.772Z,0.73
2023-04-11T02:47:19.776Z,0.74
2023-04-11T02:48:19.789Z,0.71
2023-04-11T02:49:19.823Z,0.71
2023-04-11T02:50:19.824Z,0.73
2023-04-11T02:51:19.846Z,0.72
2023-04-11T02:52:19.892Z,0.72
2023-04-11T02:53:19.904Z,0.73
2023-04-11T02:54:19.931Z,0.73
2023-04-11T02:55:19.962Z,0.72
2023-04-11T02:56:19.987Z,0.72
2023-04-11T02:57:20.011Z,0.74
2023-04-11T02:58:20.034Z,0.74
2023-04-11T02:59:20.063Z,0.71
2023-04-11T03:00:20.078Z,0.74
2023-04-11T03:01:20.096Z,0.73
2023-04-11T03:02:20.216Z,0.72
2023-04-11T03:03:20.329Z,0.72
2023-04-11T03:04:20.176Z,0.74
2023-04-11T03:05:20.244Z,0.72
2023-04-11T03:06:20.188Z,0.72
2023-04-11T03:07:20.198Z,0.72
2023-04-11T03:08:20.206Z,0.73
2023-04-11T03:09:20.232Z,0.73
2023-04-11T03:10:20.265Z,0.72
2023-04-11T03:11:20.277Z,0.75
2023-04-11T03:12:20.337Z,0.72
2023-04-11T03:13:20.324Z,0.72
2023-04-11T03:14:20.325Z,0.71
2023-04-11T03:15:20.341Z,0.73
2023-04-11T03:16:20.372Z,0.74
2023-04-11T03:17:20.402Z,0.74
2023-04-11T03:18:20.392Z,0.72
2023-04-11T03:19:20.451Z,0.73
2023-04-11T03:20:20.417Z,0.73
2023-04-11T03:21:20.433Z,0.72
2023-04-11T03:22:20.454Z,0.74
2023-04-11T03:23:20.466Z,0.75
2023-04-11T03:24:20.469Z,0.74
2023-04-11T03:25:20.474Z,0.72
2023-04-11T03:26:20.459Z,0.72
2023-04-11T03:27:20.442Z,0.72
2023-04-11T03:28:20.466Z,0.71
2023-04-11T03:29:20.465Z,0.72
2023-04-11T03:30:20.486Z,0.73
2023-04-11T03:31:20.519Z,0.72
2023-04-11T03:32:20.550Z,0.73
2023-04-11T03:33:20.548Z,0.73
2023-04-11T03:34:20.558Z,0.74
2023-04-11T03:35:20.667Z,0.71
2023-04-11T03:36:20.656Z,0.73
2023-04-11T03:37:20.627Z,0.72
2023-04-11T03:38:20.640Z,0.73
2023-04-11T03:39:20.669Z,0.71
2023-04-11T03:40:20.713Z,0.72
2023-04-11T03:41:20.735Z,0.71
2023-04-11T03:42:20.760Z,0.72
2023-04-11T03:43:20.790Z,0.73
2023-04-11T03:44:20.799Z,0.72
2023-04-11T03:45:20.829Z,0.72
2023-04-11T03:46:20.888Z,0.70
2023-04-11T03:47:20.875Z,0.72
2023-04-11T03:48:20.903Z,0.73
2023-04-11T03:49:20.941Z,0.72
2023-04-11T03:50:20.952Z,0.71
2023-04-11T03:51:20.970Z,0.72
2023-04-11T03:52:20.993Z,0.71
2023-04-11T03:53:21.022Z,0.71
2023-04-11T03:54:21.051Z,0.73
2023-04-11T03:55:21.078Z,0.71
2023-04-11T03:56:21.104Z,0.72
2023-04-11T03:57:21.104Z,0.72
2023-04-11T03:58:21.115Z,0.71
2023-04-11T03:59:21.161Z,0.72
2023-04-11T04:00:21.166Z,0.70
2023-04-11T04:01:21.190Z,0.72
2023-04-11T04:02:21.316Z,0.72
2023-04-11T04:03:21.316Z,0.70
2023-04-11T04:04:21.349Z,0.72
2023-04-11T04:05:21.270Z,0.70
2023-04-11T04:06:21.298Z,0.70
2023-04-11T04:07:21.303Z,0.73
2023-04-11T04:08:21.342Z,0.71
2023-04-11T04:09:21.358Z,0.72
2023-04-11T04:10:21.364Z,0.71
2023-04-11T04:11:21.406Z,0.71
2023-04-11T04:12:21.404Z,0.72
2023-04-11T04:13:21.413Z,0.71
2023-04-11T04:14:21.426Z,0.70
2023-04-11T04:15:21.530Z,0.72
2023-04-11T04:16:21.513Z,0.70
2023-04-11T04:17:21.481Z,0.70
2023-04-11T04:18:21.509Z,0.72
2023-04-11T04:19:21.512Z,0.71
2023-04-11T04:20:21.538Z,0.73
2023-04-11T04:21:21.550Z,0.70
2023-04-11T04:22:21.546Z,0.72
2023-04-11T04:23:21.574Z,0.73
2023-04-11T04:24:21.590Z,0.71
2023-04-11T04:25:24.578Z,0.70
2023-04-11T04:26:21.554Z,0.70
2023-04-11T04:27:21.525Z,0.70
2023-04-11T04:28:21.481Z,0.71
2023-04-11T04:29:21.431Z,0.73
2023-04-11T04:30:21.392Z,0.71
2023-04-11T04:31:21.372Z,0.72
2023-04-11T04:32:21.341Z,0.73
2023-04-11T04:33:21.258Z,0.72
2023-04-11T04:34:21.205Z,0.72
2023-04-11T04:35:21.166Z,0.72
2023-04-11T04:36:21.119Z,0.71
2023-04-11T04:37:21.070Z,0.72
2023-04-11T04:38:21.033Z,0.72
2023-04-11T04:39:20.979Z,0.73
2023-04-11T04:40:20.932Z,0.72
2023-04-11T04:41:20.894Z,0.73
2023-04-11T04:42:20.843Z,0.72
2023-04-11T04:43:20.807Z,0.73
2023-04-11T04:44:20.760Z,0.71
2023-04-11T04:45:20.720Z,0.72
2023-04-11T04:46:20.711Z,0.70
2023-04-11T04:47:20.671Z,0.71
2023-04-11T04:48:20.702Z,0.71
2023-04-11T04:49:20.689Z,0.71
2023-04-11T04:50:20.721Z,0.71
2023-04-11T04:51:20.739Z,0.70
2023-04-11T04:52:20.766Z,0.73
2023-04-11T04:53:20.804Z,0.70
2023-04-11T04:54:20.805Z,0.72
2023-04-11T04:55:20.816Z,0.71
2023-04-11T04:56:20.837Z,0.71
2023-04-11T04:57:20.856Z,0.73
2023-04-11T04:58:20.887Z,0.70
2023-04-11T04:59:20.893Z,0.70
2023-04-11T05:00:22.910Z,0.72
2023-04-11T05:01:20.952Z,0.72
2023-04-11T05:02:21.026Z,0.71
2023-04-11T05:03:21.071Z,0.71
2023-04-11T05:04:21.109Z,0.71
2023-04-11T05:05:20.997Z,0.72
2023-04-11T05:06:20.991Z,0.72
2023-04-11T05:07:21.021Z,0.74
2023-04-11T05:08:21.026Z,0.72
2023-04-11T05:09:21.053Z,0.75
2023-04-11T05:10:21.055Z,0.77
2023-04-11T05:11:21.070Z,0.77
2023-04-11T05:12:21.067Z,0.79
2023-04-11T05:13:21.086Z,0.82
2023-04-11T05:14:21.076Z,0.82
2023-04-11T05:15:21.092Z,0.80
2023-04-11T05:16:21.122Z,0.82
2023-04-11T05:17:22.197Z,0.85
2023-04-11T05:18:21.049Z,0.90
2023-04-11T05:19:21.004Z,0.90
2023-04-11T05:20:20.962Z,0.93
2023-04-11T05:21:20.930Z,0.95
2023-04-11T05:22:20.905Z,0.99
2023-04-11T05:23:20.843Z,1.00
2023-04-11T05:24:20.805Z,1.07
2023-04-11T05:25:20.756Z,1.17
2023-04-11T05:26:20.720Z,1.20
2023-04-11T05:27:22.273Z,1.28
2023-04-11T05:28:20.652Z,1.09
2023-04-11T05:29:21.258Z,0.91
2023-04-11T05:30:20.612Z,0.94
2023-04-11T05:31:22.334Z,0.94
2023-04-11T05:32:20.577Z,0.94
2023-04-11T05:33:20.493Z,0.95
2023-04-11T05:34:22.270Z,0.95
2023-04-11T05:35:21.252Z,0.85
2023-04-11T05:36:22.275Z,0.70
2023-04-11T05:37:21.177Z,0.61
2023-04-11T05:38:20.294Z,0.58
2023-04-11T05:39:21.821Z,0.56
2023-04-11T05:40:20.757Z,0.57
2023-04-11T05:41:20.160Z,0.64
2023-04-11T05:42:20.160Z,0.70
2023-04-11T05:43:20.091Z,0.76
2023-04-11T05:44:20.062Z,0.82
2023-04-11T05:45:20.106Z,0.89
2023-04-11T05:46:20.144Z,0.91
2023-04-11T05:47:20.082Z,0.91
2023-04-11T05:48:20.038Z,0.92
2023-04-11T05:49:20.050Z,0.93
2023-04-11T05:50:22.791Z,0.95
2023-04-11T05:51:19.885Z,0.99
2023-04-11T05:52:19.844Z,0.99
2023-04-11T05:53:19.796Z,1.01
2023-04-11T05:54:19.836Z,1.09
2023-04-11T05:55:19.727Z,1.06
2023-04-11T05:56:19.678Z,1.09
2023-04-11T05:57:19.626Z,1.15
2023-04-11T05:58:19.585Z,1.10
2023-04-11T05:59:25.062Z,1.14
2023-04-11T06:00:20.523Z,1.14
2023-04-11T06:01:19.447Z,1.14
2023-04-11T06:02:20.360Z,1.09
2023-04-11T06:03:19.470Z,1.04
2023-04-11T06:04:19.483Z,1.02
2023-04-11T06:05:19.349Z,0.99
2023-04-11T06:06:19.216Z,1.08
2023-04-11T06:07:19.174Z,1.11
2023-04-11T06:08:19.146Z,1.14
2023-04-11T06:09:19.295Z,1.14
2023-04-11T06:10:19.069Z,1.15
2023-04-11T06:11:19.770Z,1.16
2023-04-11T06:12:18.963Z,1.17
2023-04-11T06:13:18.932Z,1.20
2023-04-11T06:14:18.883Z,1.20
2023-04-11T06:15:18.839Z,1.19
2023-04-11T06:16:18.841Z,1.20
2023-04-11T06:17:18.834Z,1.25
2023-04-11T06:18:18.833Z,1.23
2023-04-11T06:19:18.872Z,1.22
2023-04-11T06:20:18.885Z,1.22
2023-04-11T06:21:18.904Z,1.27
2023-04-11T06:22:18.921Z,1.30
2023-04-11T06:23:22.275Z,1.37
2023-04-11T06:24:18.915Z,1.37
2023-04-11T06:25:19.780Z,1.40
2023-04-11T06:26:18.913Z,1.44
2023-04-11T06:27:18.819Z,1.58
2023-04-11T06:28:18.880Z,1.81
2023-04-11T06:29:18.776Z,1.91
2023-04-11T06:30:18.794Z,1.88
2023-04-11T06:31:18.896Z,1.67
2023-04-11T06:32:18.823Z,1.52
2023-04-11T06:33:19.299Z,1.48
2023-04-11T06:34:18.860Z,1.41
2023-04-11T06:35:18.881Z,1.42
2023-04-11T06:36:18.974Z,1.42
2023-04-11T06:37:18.929Z,1.49
2023-04-11T06:38:18.955Z,1.50
2023-04-11T06:39:19.020Z,1.50
2023-04-11T06:40:19.014Z,1.49
2023-04-11T06:41:19.020Z,1.53
2023-04-11T06:42:19.055Z,1.62
2023-04-11T06:43:19.789Z,1.61
2023-04-11T06:44:19.077Z,1.62
2023-04-11T06:45:19.104Z,1.65
2023-04-11T06:46:19.149Z,1.73
2023-04-11T06:47:19.218Z,1.70
2023-04-11T06:48:19.168Z,1.71
2023-04-11T06:49:19.202Z,1.78
2023-04-11T06:50:19.157Z,1.78
2023-04-11T06:51:19.122Z,1.78
2023-04-11T06:52:25.851Z,1.80
2023-04-11T06:53:19.050Z,1.78
2023-04-11T06:54:18.996Z,1.78
2023-04-11T06:55:18.972Z,1.62
2023-04-11T06:56:18.919Z,1.49
2023-04-11T06:57:18.983Z,1.33
2023-04-11T06:58:18.953Z,1.24
2023-04-11T06:59:18.813Z,1.17
2023-04-11T07:00:18.778Z,1.18
2023-04-11T07:01:18.802Z,1.12
2023-04-11T07:02:18.903Z,1.17
2023-04-11T07:03:18.755Z,1.10
2023-04-11T07:04:19.747Z,1.10
2023-04-11T07:05:18.623Z,1.12
2023-04-11T07:06:18.564Z,1.17
2023-04-11T07:07:18.518Z,1.28
2023-04-11T07:08:18.497Z,1.46
2023-04-11T07:09:18.440Z,1.51
2023-04-11T07:10:18.401Z,1.58
2023-04-11T07:11:20.063Z,1.63
2023-04-11T07:12:18.311Z,1.60
2023-04-11T07:13:20.836Z,1.60
2023-04-11T07:14:20.324Z,1.62
2023-04-11T07:15:19.296Z,1.65
2023-04-11T07:16:18.492Z,1.69
2023-04-11T07:17:18.448Z,1.82
2023-04-11T07:18:18.473Z,1.91
2023-04-11T07:19:19.314Z,2.01
2023-04-11T07:20:18.418Z,2.05
2023-04-11T07:21:18.397Z,2.07
2023-04-11T07:22:18.376Z,2.12
2023-04-11T07:23:18.362Z,2.26
2023-04-11T07:24:18.444Z,2.25
2023-04-11T07:25:18.367Z,2.24
2023-04-11T07:26:18.363Z,2.28
2023-04-11T07:27:18.369Z,2.27
2023-04-11T07:28:18.378Z,2.39
2023-04-11T07:29:18.393Z,2.31
2023-04-11T07:30:18.375Z,2.29
2023-04-11T07:31:18.418Z,2.29
2023-04-11T07:32:18.421Z,2.30
2023-04-11T07:33:18.407Z,2.30
2023-04-11T07:34:18.454Z,2.29
2023-04-11T07:35:18.441Z,2.34
2023-04-11T07:36:18.430Z,2.30
2023-04-11T07:37:18.435Z,2.40
2023-04-11T07:38:18.448Z,2.32
2023-04-11T07:39:18.481Z,2.33
2023-04-11T07:40:18.487Z,2.32
2023-04-11T07:41:18.527Z,2.35
2023-04-11T07:42:18.527Z,2.29
2023-04-11T07:43:18.560Z,2.28
2023-04-11T07:44:18.568Z,2.28
2023-04-11T07:45:18.584Z,2.25
2023-04-11T07:46:18.826Z,2.33
2023-04-11T07:47:18.629Z,2.30
2023-04-11T07:48:18.633Z,2.39
2023-04-11T07:49:18.659Z,2.32
2023-04-11T07:50:18.680Z,2.39
2023-04-11T07:51:18.700Z,2.38
2023-04-11T07:52:18.729Z,2.36
2023-04-11T07:53:18.731Z,2.37
2023-04-11T07:54:18.736Z,2.35
2023-04-11T07:55:18.764Z,2.32
2023-04-11T07:56:18.803Z,2.36
2023-04-11T07:57:18.805Z,2.38
2023-04-11T07:58:18.819Z,2.28
2023-04-11T07:59:18.847Z,2.32
2023-04-11T08:00:18.873Z,2.33
2023-04-11T08:01:18.900Z,2.34
2023-04-11T08:02:19.058Z,2.26
2023-04-11T08:03:19.050Z,2.31
2023-04-11T08:04:19.115Z,2.30
2023-04-11T08:05:19.025Z,2.25
2023-04-11T08:06:18.977Z,2.27
2023-04-11T08:07:18.989Z,2.26
2023-04-11T08:08:19.013Z,2.21
2023-04-11T08:09:19.018Z,2.21
2023-04-11T08:10:19.025Z,2.23
2023-04-11T08:11:19.058Z,2.27
2023-04-11T08:12:19.054Z,2.51
2023-04-11T08:13:19.842Z,2.69
2023-04-11T08:14:18.995Z,2.70
2023-04-11T08:15:18.985Z,2.76
2023-04-11T08:16:19.018Z,2.89
2023-04-11T08:17:27.661Z,3.06
2023-04-11T08:18:19.926Z,2.72
2023-04-11T08:19:18.855Z,2.84
2023-04-11T08:20:19.329Z,3.12
2023-04-11T08:21:18.770Z,3.55
2023-04-11T08:22:18.734Z,4.18
2023-04-11T08:23:18.703Z,4.37
2023-04-11T08:24:18.659Z,4.19
2023-04-11T08:25:19.290Z,4.10
2023-04-11T08:26:18.582Z,4.10
2023-04-11T08:27:18.541Z,3.93
2023-04-11T08:28:18.506Z,4.02
2023-04-11T08:29:18.449Z,4.02
2023-04-11T08:30:18.416Z,4.00
2023-04-11T08:31:18.906Z,3.79
2023-04-11T08:32:19.359Z,3.60
2023-04-11T08:33:18.410Z,3.82
2023-04-11T08:34:18.396Z,4.00
2023-04-11T08:35:18.388Z,4.17
2023-04-11T08:36:18.414Z,4.28
2023-04-11T08:37:18.414Z,4.46
2023-04-11T08:38:18.427Z,4.63
2023-04-11T08:39:18.454Z,4.65
2023-04-11T08:40:18.452Z,4.74
2023-04-11T08:41:18.470Z,4.81
2023-04-11T08:42:18.486Z,4.55
2023-04-11T08:43:18.516Z,4.26
2023-04-11T08:44:18.514Z,4.36
2023-04-11T08:45:18.555Z,4.25
2023-04-11T08:46:18.643Z,4.21
2023-04-11T08:47:18.588Z,3.91
2023-04-11T08:48:18.600Z,3.67
2023-04-11T08:49:18.645Z,3.60
2023-04-11T08:50:18.644Z,3.47
2023-04-11T08:51:18.650Z,3.54
2023-04-11T08:52:18.671Z,3.53
2023-04-11T08:53:18.912Z,3.44
2023-04-11T08:54:18.704Z,3.38
2023-04-11T08:55:18.811Z,3.32
2023-04-11T08:56:18.794Z,3.24
2023-04-11T08:57:18.766Z,3.47
2023-04-11T08:58:18.758Z,3.78
2023-04-11T08:59:18.788Z,4.21
2023-04-11T09:00:19.069Z,4.45
2023-04-11T09:01:18.761Z,4.46
2023-04-11T09:02:18.838Z,4.52
2023-04-11T09:03:18.743Z,4.61
2023-04-11T09:04:18.650Z,4.50
2023-04-11T09:05:18.560Z,4.08
2023-04-11T09:06:19.379Z,4.06
2023-04-11T09:07:18.475Z,4.48
2023-04-11T09:08:23.358Z,4.68
2023-04-11T09:09:18.394Z,4.68
2023-04-11T09:10:18.351Z,4.70
2023-04-11T09:11:18.294Z,4.57
2023-04-11T09:12:18.266Z,4.49
2023-04-11T09:13:18.213Z,4.55
2023-04-11T09:14:18.195Z,4.69
2023-04-11T09:15:18.104Z,4.75
2023-04-11T09:16:18.107Z,4.87
2023-04-11T09:17:18.037Z,4.98
2023-04-11T09:18:18.037Z,5.34
2023-04-11T09:19:17.953Z,5.28
2023-04-11T09:20:17.943Z,5.42
2023-04-11T09:21:17.899Z,5.49
2023-04-11T09:22:17.857Z,5.25
2023-04-11T09:23:17.815Z,5.08
2023-04-11T09:24:17.783Z,4.92
2023-04-11T09:25:17.739Z,5.01
2023-04-11T09:26:17.693Z,4.92
2023-04-11T09:27:17.702Z,4.90
2023-04-11T09:28:17.708Z,4.90
2023-04-11T09:29:17.729Z,5.04
2023-04-11T09:30:17.755Z,5.30
2023-04-11T09:31:17.775Z,4.85
2023-04-11T09:32:17.776Z,3.49
2023-04-11T09:33:17.782Z,1.79
2023-04-11T09:34:17.802Z,1.02
2023-04-11T09:35:17.819Z,0.74
2023-04-11T09:36:17.863Z,0.63
2023-04-11T09:37:17.858Z,0.48
2023-04-11T09:38:17.870Z,0.42
2023-04-11T09:39:17.889Z,0.39
2023-04-11T09:40:17.900Z,0.37
2023-04-11T09:41:17.911Z,0.38
2023-04-11T09:42:17.877Z,0.43
2023-04-11T09:43:19.982Z,0.46
2023-04-11T09:44:18.039Z,0.50
2023-04-11T09:45:17.905Z,0.50
2023-04-11T09:46:17.933Z,0.50
2023-04-11T09:47:17.866Z,0.50
2023-04-11T09:48:17.851Z,0.50
2023-04-11T09:49:17.822Z,0.50
2023-04-11T09:50:17.809Z,0.50
2023-04-11T09:51:34.395Z,0.50
2023-04-11T09:52:18.742Z,0.50
2023-04-11T09:53:17.706Z,0.48
2023-04-11T09:54:17.684Z,0.49
2023-04-11T09:55:18.376Z,0.48
2023-04-11T09:56:17.700Z,0.48
2023-04-11T09:57:17.554Z,0.51
2023-04-11T09:58:17.506Z,0.51
2023-04-11T09:59:17.471Z,0.50
2023-04-11T10:00:17.436Z,0.51
2023-04-11T10:01:17.394Z,0.53
2023-04-11T10:02:17.494Z,0.59
2023-04-11T10:03:17.384Z,0.89
2023-04-11T10:04:17.297Z,1.42
2023-04-11T10:05:17.222Z,2.26
2023-04-11T10:06:17.191Z,2.96
2023-04-11T10:07:17.207Z,4.29
2023-04-11T10:08:17.139Z,5.07
2023-04-11T10:09:17.074Z,5.04
2023-04-11T10:10:17.004Z,5.24
2023-04-11T10:11:16.959Z,5.16
2023-04-11T10:12:16.932Z,5.66
2023-04-11T10:13:16.893Z,6.72
2023-04-11T10:14:16.861Z,7.65
2023-04-11T10:15:16.821Z,8.77
2023-04-11T10:16:16.815Z,9.75
2023-04-11T10:17:20.721Z,10.35
2023-04-11T10:18:17.727Z,10.39
2023-04-11T10:19:16.668Z,10.58
2023-04-11T10:20:16.630Z,11.03
2023-04-11T10:21:16.572Z,12.13
2023-04-11T10:22:16.563Z,14.20
2023-04-11T10:23:16.506Z,14.48
2023-04-11T10:24:17.818Z,14.81
2023-04-11T10:25:16.388Z,14.90
2023-04-11T10:26:17.357Z,15.50
2023-04-11T10:27:16.897Z,15.81
2023-04-11T10:28:16.392Z,16.26
2023-04-11T10:29:16.418Z,16.34
2023-04-11T10:30:17.313Z,16.89
2023-04-11T10:31:16.436Z,16.79
2023-04-11T10:32:16.442Z,17.14
2023-04-11T10:33:16.464Z,17.20
2023-04-11T10:34:16.474Z,17.56
2023-04-11T10:35:16.483Z,17.52
2023-04-11T10:36:16.543Z,17.94
2023-04-11T10:37:16.519Z,17.84
2023-04-11T10:38:16.521Z,17.99
2023-04-11T10:39:16.537Z,18.12
2023-04-11T10:40:16.552Z,18.56
2023-04-11T10:41:16.583Z,19.14
2023-04-11T10:42:16.610Z,18.82
2023-04-11T10:43:16.588Z,19.04
2023-04-11T10:44:16.612Z,19.45
2023-04-11T10:45:16.629Z,19.75
2023-04-11T10:46:16.681Z,19.52
2023-04-11T10:47:16.748Z,19.02
2023-04-11T10:48:16.670Z,19.42
2023-04-11T10:49:16.789Z,20.00
2023-04-11T10:50:16.693Z,19.53
2023-04-11T10:51:16.709Z,19.74
2023-04-11T10:52:16.732Z,20.03
2023-04-11T10:53:16.735Z,20.68
2023-04-11T10:54:16.765Z,20.66
2023-04-11T10:55:16.777Z,20.67
2023-04-11T10:56:17.524Z,20.54
2023-04-11T10:57:16.794Z,20.30
2023-04-11T10:58:16.832Z,20.71
2023-04-11T10:59:16.819Z,21.45
2023-04-11T11:00:16.835Z,21.05
2023-04-11T11:01:26.442Z,20.78
2023-04-11T11:02:17.866Z,20.84
2023-04-11T11:03:16.887Z,21.07
2023-04-11T11:04:16.955Z,21.63
2023-04-11T11:05:16.682Z,23.61
2023-04-11T11:06:16.629Z,28.46
2023-04-11T11:07:16.601Z,29.69
2023-04-11T11:08:16.566Z,35.80
2023-04-11T11:09:16.528Z,36.11
2023-04-11T11:10:16.479Z,35.89
2023-04-11T11:11:17.335Z,37.77
2023-04-11T11:12:16.397Z,38.41
2023-04-11T11:13:16.357Z,39.85
2023-04-11T11:14:16.318Z,40.96
2023-04-11T11:15:16.328Z,43.49
2023-04-11T11:16:16.389Z,44.00
2023-04-11T11:17:16.354Z,44.15
2023-04-11T11:18:16.420Z,44.38
2023-04-11T11:19:16.372Z,44.51
2023-04-11T11:20:16.380Z,45.82
2023-04-11T11:21:24.625Z,47.65
2023-04-11T11:22:17.350Z,47.68
2023-04-11T11:23:16.284Z,47.69
2023-04-11T11:24:16.231Z,48.16
2023-04-11T11:25:16.196Z,47.70
2023-04-11T11:26:16.133Z,47.56
2023-04-11T11:27:16.090Z,48.29
2023-04-11T11:28:16.040Z,49.24
2023-04-11T11:29:16.912Z,49.64
2023-04-11T11:30:15.941Z,50.63
2023-04-11T11:31:15.945Z,52.98
2023-04-11T11:32:15.949Z,51.82
2023-04-11T11:33:15.970Z,50.74
2023-04-11T11:35:15.926Z,53.17
2023-04-11T11:36:15.897Z,54.85
2023-04-11T11:37:15.808Z,53.90
2023-04-11T11:38:15.762Z,53.64
2023-04-11T11:39:15.740Z,54.97
2023-04-11T11:40:15.741Z,57.40
2023-04-11T11:41:15.619Z,59.41
2023-04-11T11:42:15.590Z,59.98
2023-04-11T11:43:15.532Z,59.60
2023-04-11T11:44:15.491Z,62.04
2023-04-11T11:45:15.456Z,63.05
2023-04-11T11:46:15.432Z,63.45
2023-04-11T11:47:15.655Z,64.67
2023-04-11T11:48:15.313Z,62.12
2023-04-11T11:49:15.342Z,61.48
2023-04-11T11:50:15.232Z,62.35
2023-04-11T11:51:15.181Z,60.63
2023-04-11T11:52:15.125Z,70.66
2023-04-11T11:53:15.075Z,66.52
2023-04-11T11:54:15.014Z,63.61
2023-04-11T11:55:14.969Z,63.78
2023-04-11T11:56:14.919Z,62.90
2023-04-11T11:57:14.867Z,64.62
2023-04-11T11:58:14.820Z,63.32
2023-04-11T11:59:14.783Z,66.22
2023-04-11T12:00:14.720Z,67.76
2023-04-11T12:01:15.716Z,67.94
2023-04-11T12:02:14.700Z,69.40
2023-04-11T12:03:14.704Z,72.30
2023-04-11T12:04:14.644Z,82.75
2023-04-11T12:05:14.555Z,94.98
2023-04-11T12:06:14.425Z,106.54
2023-04-11T12:07:14.373Z,152.20
2023-04-11T12:08:14.319Z,149.50
2023-04-11T12:09:14.296Z,153.51
2023-04-11T12:10:14.249Z,158.66
2023-04-11T12:11:14.238Z,155.84
2023-04-11T12:12:14.271Z,135.06
2023-04-11T12:13:14.292Z,125.28
2023-04-11T12:14:14.206Z,124.84
2023-04-11T12:15:14.328Z,122.15
2023-04-11T12:16:14.282Z,134.58
2023-04-11T12:17:14.282Z,176.71
2023-04-11T12:18:14.246Z,221.82
2023-04-11T12:19:14.192Z,250.16
2023-04-11T12:20:14.193Z,263.16
2023-04-11T12:21:14.185Z,277.41
2023-04-11T12:22:14.315Z,284.16
2023-04-11T12:23:14.188Z,266.67
2023-04-11T12:24:14.200Z,253.85
2023-04-11T12:25:14.195Z,238.32
2023-04-11T12:26:14.197Z,215.95
2023-04-11T12:27:14.203Z,202.98
2023-04-11T12:28:14.201Z,185.11
2023-04-11T12:29:14.207Z,179.19
2023-04-11T12:30:14.232Z,172.66
2023-04-11T12:31:14.261Z,159.96
2023-04-11T12:32:14.203Z,152.10
2023-04-11T12:33:14.207Z,151.20
2023-04-11T12:34:14.211Z,149.43
2023-04-11T12:35:14.222Z,151.69
2023-04-11T12:36:14.211Z,142.22
2023-04-11T12:37:14.222Z,142.42
2023-04-11T12:38:17.423Z,136.45
2023-04-11T12:39:14.171Z,136.47
2023-04-11T12:40:14.168Z,130.42
2023-04-11T12:41:31.637Z,120.53
2023-04-11T12:42:16.768Z,123.84
2023-04-11T12:43:14.969Z,125.70
2023-04-11T12:44:13.928Z,121.54
2023-04-11T12:45:13.875Z,116.15
2023-04-11T12:46:13.845Z,111.95
2023-04-11T12:47:13.812Z,108.12
2023-04-11T12:48:13.730Z,108.83
2023-04-11T12:49:13.700Z,106.68
2023-04-11T12:50:13.672Z,102.58
2023-04-11T12:51:13.592Z,102.66
2023-04-11T12:52:13.559Z,99.35
2023-04-11T12:53:13.517Z,97.39
2023-04-11T12:54:13.431Z,94.30
2023-04-11T12:55:13.596Z,93.27
2023-04-11T12:56:13.326Z,89.56
2023-04-11T12:57:13.283Z,93.32
2023-04-11T12:58:13.260Z,90.14
2023-04-11T12:59:13.188Z,89.79
2023-04-11T13:00:13.208Z,95.76
2023-04-11T13:01:13.127Z,94.76
2023-04-11T13:02:13.122Z,94.38
2023-04-11T13:03:13.178Z,103.07
2023-04-11T13:04:13.064Z,105.30
2023-04-11T13:05:12.932Z,103.16
2023-04-11T13:06:12.844Z,97.07
2023-04-11T13:07:12.796Z,86.54
2023-04-11T13:08:12.755Z,84.69
2023-04-11T13:09:12.728Z,81.57
2023-04-11T13:10:12.740Z,91.39
2023-04-11T13:11:12.734Z,89.34
2023-04-11T13:12:12.721Z,80.86